Time;durP1;ratioP1;P1;durP2;ratioP2;P2;SDS_P1;SDS_P2;PMS_P1;PMS_P2;Temp;Humidity;BMP_temperature;BMP_pressure;BME280_temperature;BME280_humidity;BME280_pressure;Samples;Min_cycle;Max_cycle;Signal;HPM_P1;HPM_P2
2022/05/08 00:02:25;;;;;;;0.70;0.40;;;;;;;26.14;31.83;102283.06;5020353;28;20037;-47
2022/05/08 00:04:54;;;;;;;1.02;0.50;;;;;;;26.14;31.81;102289.22;5054379;28;20029;-45
2022/05/08 00:07:24;;;;;;;0.40;0.40;;;;;;;26.16;31.93;102284.88;5054049;28;20082;-45
2022/05/08 00:09:52;;;;;;;1.33;0.50;;;;;;;26.16;31.92;102281.38;5054004;28;20028;-46
2022/05/08 00:12:21;;;;;;;1.15;0.40;;;;;;;26.15;31.79;102283.09;5052957;28;20078;-47
2022/05/08 00:14:49;;;;;;;1.35;0.40;;;;;;;26.17;31.86;102275.25;5054023;28;20037;-45
2022/05/08 00:17:18;;;;;;;0.85;0.55;;;;;;;26.19;31.85;102269.19;5053939;28;20032;-47
2022/05/08 00:19:47;;;;;;;0.60;0.43;;;;;;;26.17;31.59;102267.38;5069057;28;20127;-43
2022/05/08 00:22:16;;;;;;;0.60;0.32;;;;;;;26.19;31.84;102269.19;5052411;28;20059;-47
2022/05/08 00:24:45;;;;;;;0.70;0.35;;;;;;;26.15;31.80;102262.06;5053642;28;20108;-43
2022/05/08 00:27:13;;;;;;;1.02;0.50;;;;;;;26.10;31.83;102253.16;5069306;28;20056;-43
2022/05/08 00:29:42;;;;;;;0.90;0.50;;;;;;;26.12;31.76;102256.75;5053446;28;20017;-47
2022/05/08 00:32:11;;;;;;;1.10;0.30;;;;;;;26.13;31.99;102258.53;5053532;28;20104;-45
2022/05/08 00:34:39;;;;;;;0.40;0.38;;;;;;;26.14;31.78;102255.03;5051999;28;20482;-44
2022/05/08 00:37:08;;;;;;;0.63;0.32;;;;;;;26.12;31.81;102256.75;5051987;28;20449;-46
2022/05/08 00:39:36;;;;;;;0.52;0.32;;;;;;;26.14;31.87;102259.41;5053226;28;20025;-47
2022/05/08 00:42:05;;;;;;;0.82;0.40;;;;;;;26.12;31.56;102254.13;5068944;28;20403;-42
2022/05/08 00:44:33;;;;;;;1.27;0.50;;;;;;;26.12;31.84;102259.38;5053679;28;20016;-42
2022/05/08 00:47:02;;;;;;;0.75;0.40;;;;;;;26.14;31.79;102259.41;5053159;28;20029;-48
2022/05/08 00:49:32;;;;;;;0.50;0.30;;;;;;;26.13;31.94;102255.91;5052055;28;20462;-46
2022/05/08 00:52:00;;;;;;;0.55;0.40;;;;;;;25.99;31.84;102228.31;5053935;28;20036;-43
2022/05/08 00:54:29;;;;;;;1.98;0.52;;;;;;;26.12;31.77;102248.84;5052025;28;20377;-44
2022/05/08 00:56:58;;;;;;;0.20;0.20;;;;;;;26.10;31.86;102247.91;5053584;28;20044;-48
2022/05/08 00:59:27;;;;;;;0.82;0.40;;;;;;;26.08;31.91;102237.31;5053352;28;20486;-44
2022/05/08 01:01:55;;;;;;;0.88;0.60;;;;;;;26.05;31.89;102232.00;5053133;28;20492;-42
2022/05/08 01:04:24;;;;;;;0.70;0.40;;;;;;;25.98;32.11;102210.78;5052655;28;20078;-50
2022/05/08 01:06:52;;;;;;;0.90;0.40;;;;;;;26.04;31.88;102226.69;5052890;28;20025;-42
2022/05/08 01:09:21;;;;;;;1.02;0.50;;;;;;;26.02;31.88;102231.94;5052073;28;20153;-51
2022/05/08 01:11:50;;;;;;;1.95;0.50;;;;;;;26.09;31.66;102228.56;5053017;28;20029;-42
2022/05/08 01:14:19;;;;;;;1.05;0.47;;;;;;;26.06;32.03;102227.63;5053329;28;20029;-44
2022/05/08 01:16:47;;;;;;;1.00;0.50;;;;;;;26.03;32.03;102227.53;5053144;28;20378;-46
2022/05/08 01:19:16;;;;;;;1.48;0.45;;;;;;;26.00;32.05;102219.56;5052835;28;20029;-47
2022/05/08 01:21:45;;;;;;;1.13;0.52;;;;;;;26.07;31.96;102226.78;5053115;28;20041;-42
2022/05/08 01:24:20;;;;;;;1.40;0.55;;;;;;;26.00;32.05;102225.75;5052891;28;20029;-42
2022/05/08 01:26:49;;;;;;;1.05;0.50;;;;;;;26.00;31.69;102219.56;5053053;28;20064;-42
2022/05/08 01:29:18;;;;;;;1.98;0.65;;;;;;;26.01;31.90;102218.72;5052961;28;20071;-46
2022/05/08 01:31:47;;;;;;;1.65;0.40;;;;;;;25.99;31.96;102223.06;5052782;28;20025;-42
2022/05/08 01:34:16;;;;;;;0.70;0.57;;;;;;;25.97;31.92;102212.50;5053639;28;20033;-46
2022/05/08 01:36:44;;;;;;;0.38;0.30;;;;;;;25.95;32.08;102214.22;5053254;28;20052;-43
2022/05/08 01:39:12;;;;;;;0.52;0.30;;;;;;;25.96;31.85;102212.50;5052657;28;20474;-51
2022/05/08 01:41:41;;;;;;;0.75;0.40;;;;;;;25.93;31.97;102202.75;5052689;28;20461;-43
2022/05/08 01:44:09;;;;;;;1.25;0.40;;;;;;;25.94;31.67;102208.09;5052802;28;20086;-43
2022/05/08 01:46:37;;;;;;;0.40;0.40;;;;;;;25.93;31.97;102198.41;5052799;28;20445;-46
2022/05/08 01:49:05;;;;;;;1.02;0.45;;;;;;;25.96;31.69;102205.47;5052661;28;20029;-46
2022/05/08 01:51:34;;;;;;;0.73;0.30;;;;;;;25.90;31.81;102202.69;5068808;28;20091;-43
2022/05/08 01:54:02;;;;;;;1.35;0.50;;;;;;;25.90;31.87;102200.97;5052967;28;20021;-43
2022/05/08 01:56:31;;;;;;;1.50;0.50;;;;;;;25.88;32.05;102194.78;5052554;28;20458;-44
2022/05/08 01:59:01;;;;;;;1.00;0.45;;;;;;;25.91;31.73;102197.47;5067579;28;20025;-43
2022/05/08 02:01:30;;;;;;;1.90;0.63;;;;;;;25.94;31.90;102200.19;5052599;28;20037;-43
2022/05/08 02:03:59;;;;;;;2.25;0.60;;;;;;;25.91;31.88;102200.13;5052418;28;20033;-45
2022/05/08 02:06:28;;;;;;;0.55;0.40;;;;;;;25.79;31.91;102178.78;5052480;28;20017;-44
2022/05/08 02:08:56;;;;;;;0.90;0.63;;;;;;;25.88;32.25;102200.03;5052495;28;20029;-45
2022/05/08 02:11:26;;;;;;;1.98;0.70;;;;;;;25.84;32.22;102194.66;5052375;28;20383;-43
2022/05/08 02:13:58;;;;;;;0.70;0.43;;;;;;;25.81;32.01;102189.34;5052552;28;20032;-52
2022/05/08 02:16:27;;;;;;;0.70;0.40;;;;;;;25.88;31.97;102196.53;5052493;28;20150;-49
2022/05/08 02:18:56;;;;;;;1.02;0.60;;;;;;;25.89;31.79;102193.06;5052403;28;20025;-47
2022/05/08 02:21:24;;;;;;;0.40;0.40;;;;;;;25.97;31.84;102199.38;5055737;28;20049;-43
2022/05/08 02:23:53;;;;;;;1.85;0.60;;;;;;;25.91;32.01;102200.13;5055997;28;20025;-43
2022/05/08 02:26:21;;;;;;;1.08;0.50;;;;;;;25.92;31.67;102207.16;5055877;28;20458;-45
2022/05/08 02:28:50;;;;;;;0.55;0.40;;;;;;;25.91;31.87;102204.47;5055928;28;20466;-45
2022/05/08 02:31:18;;;;;;;0.70;0.60;;;;;;;25.88;31.82;102197.41;5055537;28;20100;-43
2022/05/08 02:33:47;;;;;;;0.60;0.40;;;;;;;25.84;32.04;102197.28;5056016;28;20029;-43
2022/05/08 02:36:16;;;;;;;0.95;0.50;;;;;;;25.85;31.90;102199.94;5055815;28;20189;-42
2022/05/08 02:38:44;;;;;;;0.70;0.40;;;;;;;25.76;31.74;102192.72;5055656;28;20432;-42
2022/05/08 02:41:13;;;;;;;2.15;1.20;;;;;;;25.77;31.92;102191.88;5054732;28;20029;-42
2022/05/08 02:43:41;;;;;;;0.57;0.50;;;;;;;25.77;32.28;102198.88;5055909;28;20151;-43
2022/05/08 02:46:09;;;;;;;1.08;0.50;;;;;;;25.78;32.18;102201.53;5055436;28;20029;-42
2022/05/08 02:48:38;;;;;;;1.95;0.50;;;;;;;25.75;31.96;102195.34;5055856;28;20025;-48
2022/05/08 02:51:06;;;;;;;0.98;0.50;;;;;;;25.79;32.07;102199.81;5055596;28;20029;-42
2022/05/08 02:53:34;;;;;;;1.42;0.75;;;;;;;25.73;32.17;102194.41;5055357;28;20090;-43
2022/05/08 02:58:50;;;;;;;0.75;0.30;;;;;;;25.75;32.40;102195.34;5054835;28;20075;-43
2022/05/08 03:01:18;;;;;;;1.08;0.50;;;;;;;25.76;32.26;102194.47;5055200;28;20025;-45
2022/05/08 03:03:47;;;;;;;1.13;0.45;;;;;;;25.78;32.20;102200.66;5055252;28;20021;-42
2022/05/08 03:06:15;;;;;;;1.85;0.90;;;;;;;25.79;32.12;102198.06;5055377;28;20463;-48
2022/05/08 03:08:44;;;;;;;1.27;0.60;;;;;;;25.77;32.22;102197.13;5054992;28;20105;-51
2022/05/08 03:11:33;;;;;;;1.42;0.80;;;;;;;25.74;32.00;102196.19;5054779;28;20094;-43
2022/05/08 03:14:00;;;;;;;1.10;0.70;;;;;;;25.72;32.10;102204.03;5054922;28;20386;-51
2022/05/08 03:16:28;;;;;;;0.77;0.68;;;;;;;25.69;32.20;102195.16;5055209;28;20051;-43
2022/05/08 03:18:57;;;;;;;1.25;0.65;;;;;;;25.69;32.04;102192.53;5054945;28;20384;-51
2022/05/08 03:21:26;;;;;;;2.25;0.70;;;;;;;25.68;31.95;102191.66;5054659;28;20132;-49
2022/05/08 03:23:57;;;;;;;0.70;0.50;;;;;;;25.73;31.92;102194.41;5054834;28;20102;-51
2022/05/08 03:26:28;;;;;;;1.27;0.60;;;;;;;25.69;32.07;102196.06;5053584;28;20371;-48
2022/05/08 03:28:57;;;;;;;1.02;0.40;;;;;;;25.74;32.09;102196.19;5055009;28;20449;-48
2022/05/08 03:31:25;;;;;;;1.38;0.80;;;;;;;25.74;32.25;102206.69;5054890;28;20086;-45
2022/05/08 03:33:53;;;;;;;0.77;0.52;;;;;;;25.72;31.98;102200.50;5054834;28;20108;-44
2022/05/08 03:36:22;;;;;;;1.55;0.55;;;;;;;25.71;31.77;102193.47;5054271;28;20028;-42
2022/05/08 03:38:50;;;;;;;1.95;0.70;;;;;;;25.68;32.00;102194.28;5054544;28;20055;-49
2022/05/08 03:41:19;;;;;;;0.73;0.55;;;;;;;25.75;31.72;102193.56;5054598;28;20017;-48
2022/05/08 03:43:48;;;;;;;0.82;0.50;;;;;;;25.76;32.05;102190.09;5054646;28;20025;-48
2022/05/08 03:46:17;;;;;;;0.85;0.60;;;;;;;25.76;32.01;102192.72;5054342;28;20021;-42
2022/05/08 03:48:45;;;;;;;0.60;0.60;;;;;;;25.71;31.94;102191.75;5054313;28;20067;-42
2022/05/08 03:51:14;;;;;;;1.48;0.55;;;;;;;25.71;31.87;102185.59;5054314;28;20496;-48
2022/05/08 03:53:43;;;;;;;1.58;0.63;;;;;;;25.71;31.87;102185.59;5054403;28;20048;-42
2022/05/08 03:56:12;;;;;;;0.90;0.50;;;;;;;25.73;32.16;102178.63;5054188;28;20056;-51
2022/05/08 03:58:41;;;;;;;1.60;0.70;;;;;;;25.71;31.97;102180.31;5054061;28;20458;-45
2022/05/08 04:01:10;;;;;;;1.13;0.75;;;;;;;25.71;31.89;102182.94;5054088;28;20082;-44
2022/05/08 04:03:38;;;;;;;1.20;0.70;;;;;;;25.65;32.21;102186.31;5054313;28;20025;-45
2022/05/08 04:06:07;;;;;;;0.75;0.70;;;;;;;25.65;31.98;102186.31;5054266;28;20029;-43
2022/05/08 04:08:35;;;;;;;0.98;0.73;;;;;;;25.63;31.84;102188.00;5054037;28;20024;-49
2022/05/08 04:11:04;;;;;;;1.73;0.77;;;;;;;25.63;31.89;102182.75;5054007;28;20162;-43
2022/05/08 04:13:32;;;;;;;0.82;0.50;;;;;;;25.68;32.15;102188.13;5053964;28;20025;-45
2022/05/08 04:16:21;;;;;;;1.23;0.65;;;;;;;25.70;31.99;102194.31;5053894;28;20143;-44
2022/05/08 04:18:48;;;;;;;1.40;0.60;;;;;;;25.69;32.13;102182.03;5052597;28;20447;-49
2022/05/08 04:21:17;;;;;;;0.70;0.70;;;;;;;25.67;32.05;102189.88;5053723;28;20111;-45
2022/05/08 04:24:27;;;;;;;1.35;0.60;;;;;;;25.67;32.16;102188.97;5053453;28;20025;-43
2022/05/08 04:26:33;;;;;;;2.03;0.77;;;;;;;25.72;31.87;102184.72;5053377;28;20057;-45
2022/05/08 04:29:02;;;;;;;1.20;0.75;;;;;;;25.70;32.00;102179.44;5053448;28;20025;-50
2022/05/08 04:31:30;;;;;;;1.02;0.90;;;;;;;25.68;31.83;102190.75;5053684;28;20039;-43
2022/05/08 04:33:58;;;;;;;1.17;1.00;;;;;;;25.63;32.07;102186.28;5052513;28;20102;-50
2022/05/08 04:36:27;;;;;;;1.25;0.68;;;;;;;25.62;32.14;102187.16;5053704;28;20103;-42
2022/05/08 04:38:55;;;;;;;0.95;0.60;;;;;;;25.66;31.78;102185.47;5052844;28;20036;-45
2022/05/08 04:41:24;;;;;;;1.60;0.90;;;;;;;25.65;31.98;102186.31;5052287;28;20150;-48
2022/05/08 04:43:57;;;;;;;1.00;0.80;;;;;;;25.66;31.65;102187.19;5053189;28;20025;-45
2022/05/08 04:46:25;;;;;;;1.73;0.85;;;;;;;25.63;32.14;102193.28;5053464;28;20017;-44
2022/05/08 04:48:54;;;;;;;1.98;0.80;;;;;;;25.65;32.05;102188.94;5053362;28;20025;-45
2022/05/08 04:51:22;;;;;;;1.35;0.70;;;;;;;25.57;31.88;102193.09;5053290;28;20526;-45
2022/05/08 04:53:51;;;;;;;1.27;0.80;;;;;;;25.59;31.95;102194.94;5053029;28;20040;-43
2022/05/08 04:56:19;;;;;;;1.02;0.60;;;;;;;25.56;32.37;102199.25;5053075;28;20485;-43
2022/05/08 04:58:48;;;;;;;0.90;0.60;;;;;;;25.60;32.08;102194.09;5052994;28;20474;-42
2022/05/08 05:01:16;;;;;;;1.13;0.50;;;;;;;25.58;32.16;102206.31;5051965;28;20395;-46
2022/05/08 05:03:45;;;;;;;1.15;0.80;;;;;;;25.55;31.94;102200.97;5053230;28;20467;-45
2022/05/08 05:06:13;;;;;;;0.60;0.57;;;;;;;25.53;32.07;102201.78;5053027;28;20029;-42
2022/05/08 05:08:40;;;;;;;1.45;0.90;;;;;;;25.64;32.10;102208.19;5053011;28;20075;-45
2022/05/08 05:11:09;;;;;;;2.03;0.95;;;;;;;25.58;32.04;102197.50;5053159;28;20104;-47
2022/05/08 05:13:39;;;;;;;1.33;0.85;;;;;;;25.55;32.34;102207.97;5051929;28;20025;-44
2022/05/08 05:16:08;;;;;;;3.13;1.20;;;;;;;25.61;32.26;102205.47;5053073;28;20078;-46
2022/05/08 05:18:35;;;;;;;2.10;1.40;;;;;;;25.57;32.30;102209.78;5052857;28;20039;-44
2022/05/08 05:21:04;;;;;;;3.63;1.48;;;;;;;25.50;32.49;102204.31;5052638;28;20170;-42
2022/05/08 05:23:34;;;;;;;5.97;1.60;;;;;;;25.45;32.17;102204.22;5053050;28;20083;-47
2022/05/08 05:26:03;;;;;;;4.88;1.90;;;;;;;25.49;32.29;102206.03;5051670;28;20025;-42
2022/05/08 05:28:31;;;;;;;4.35;1.60;;;;;;;25.50;32.04;102207.81;5052435;28;20037;-47
2022/05/08 05:31:00;;;;;;;4.88;1.35;;;;;;;25.43;32.42;102211.16;5053033;28;20450;-42
2022/05/08 05:33:29;;;;;;;4.65;1.40;;;;;;;25.42;32.33;102214.63;5051768;28;20029;-45
2022/05/08 05:35:57;;;;;;;3.78;1.50;;;;;;;25.50;32.46;102220.09;5053081;28;20033;-43
2022/05/08 05:38:26;;;;;;;3.63;1.40;;;;;;;25.52;32.23;102219.28;5052961;28;20028;-43
2022/05/08 05:40:54;;;;;;;5.35;1.90;;;;;;;25.41;32.48;102211.06;5052453;28;20037;-42
2022/05/08 05:43:23;;;;;;;2.42;1.50;;;;;;;25.40;32.33;102217.16;5052709;28;20459;-47
2022/05/08 05:47:49;;;;;;;8.70;1.30;;;;;;;25.45;32.49;102219.97;5052844;28;20025;-45
2022/05/08 05:48:38;;;;;;;2.88;1.30;;;;;;;25.53;31.98;102222.81;5052570;28;20494;-48
2022/05/08 05:51:07;;;;;;;8.05;1.50;;;;;;;25.61;32.12;102223.88;5052632;28;20021;-46
2022/05/08 05:53:37;;;;;;;4.25;1.15;;;;;;;25.63;31.91;102228.34;5051606;28;20087;-43
2022/05/08 05:56:05;;;;;;;1.92;1.02;;;;;;;25.64;32.24;102234.47;5055718;28;20021;-43
2022/05/08 05:58:32;;;;;;;7.72;1.45;;;;;;;25.65;32.09;102236.25;5056520;28;20386;-42
2022/05/08 06:01:00;;;;;;;1.67;1.00;;;;;;;25.71;32.13;102228.53;5055027;28;20414;-42
2022/05/08 06:03:29;;;;;;;4.60;1.10;;;;;;;25.72;32.29;102234.66;5056808;28;20029;-42
2022/05/08 06:05:57;;;;;;;2.58;1.02;;;;;;;25.73;31.96;102245.22;5056217;28;20396;-42
2022/05/08 06:08:26;;;;;;;3.38;1.13;;;;;;;25.77;31.92;102241.81;5054598;28;20029;-51
2022/05/08 06:10:54;;;;;;;3.53;0.82;;;;;;;25.79;31.86;102247.13;5056741;28;20063;-44
2022/05/08 06:13:23;;;;;;;3.83;1.00;;;;;;;25.75;32.18;102245.28;5056183;28;20137;-52
2022/05/08 06:15:51;;;;;;;2.50;1.08;;;;;;;25.79;32.30;102244.50;5056436;28;20049;-50
2022/05/08 06:18:19;;;;;;;1.48;0.93;;;;;;;25.81;32.28;102240.19;5055749;28;20032;-51
2022/05/08 06:20:47;;;;;;;3.85;1.10;;;;;;;25.86;32.15;102248.19;5055719;28;20132;-44
2022/05/08 06:23:16;;;;;;;2.90;0.75;;;;;;;25.87;32.38;102239.44;5055940;28;20040;-51
2022/05/08 06:25:45;;;;;;;3.70;0.95;;;;;;;25.85;32.51;102238.50;5055663;28;20100;-44
2022/05/08 06:28:19;;;;;;;2.90;0.90;;;;;;;25.85;32.44;102241.13;5055498;28;20028;-41
2022/05/08 06:30:48;;;;;;;1.08;0.77;;;;;;;25.86;32.31;102235.03;5056012;28;20025;-49
2022/05/08 06:33:17;;;;;;;2.45;0.95;;;;;;;25.90;32.60;102242.13;5055226;28;20037;-45
2022/05/08 06:35:45;;;;;;;2.42;1.17;;;;;;;25.90;32.33;102245.66;5055859;28;20024;-49
2022/05/08 06:38:13;;;;;;;3.22;0.90;;;;;;;25.96;32.59;102246.66;5056021;28;20605;-46
2022/05/08 06:40:42;;;;;;;1.48;1.00;;;;;;;25.97;32.56;102245.81;5055775;28;20108;-43
2022/05/08 06:43:11;;;;;;;2.08;0.70;;;;;;;25.94;32.53;102249.25;5055782;28;20021;-44
2022/05/08 06:45:39;;;;;;;2.53;1.00;;;;;;;25.94;32.58;102252.78;5071697;28;20382;-44
2022/05/08 06:48:07;;;;;;;1.13;0.77;;;;;;;25.99;32.83;102249.34;5055586;28;20051;-42
2022/05/08 06:50:36;;;;;;;1.83;0.88;;;;;;;25.98;32.80;102244.97;5055530;28;20037;-49
2022/05/08 06:53:06;;;;;;;1.15;0.90;;;;;;;26.01;32.97;102252.91;5055576;28;20036;-51
2022/05/08 06:55:35;;;;;;;2.25;1.10;;;;;;;26.02;33.07;102250.34;5056077;28;20029;-51
2022/05/08 06:58:04;;;;;;;1.98;0.93;;;;;;;26.02;32.87;102236.28;5054654;28;20036;-42
2022/05/08 07:03:19;;;;;;;2.85;0.70;;;;;;;26.15;33.17;102259.41;5055059;28;20036;-44
2022/05/08 07:05:47;;;;;;;4.75;0.80;;;;;;;26.15;32.99;102254.16;5055629;28;20052;-43
2022/05/08 07:08:16;;;;;;;3.05;0.80;;;;;;;26.17;33.15;102255.09;5055019;28;20021;-43
2022/05/08 07:10:44;;;;;;;1.90;0.75;;;;;;;26.23;33.23;102255.25;5055363;28;20028;-50
2022/05/08 07:13:12;;;;;;;1.05;0.60;;;;;;;26.28;33.11;102251.84;5055175;28;20470;-45
2022/05/08 07:15:41;;;;;;;2.85;0.80;;;;;;;26.30;33.00;102244.88;5055223;28;20035;-43
2022/05/08 07:18:09;;;;;;;0.95;0.63;;;;;;;26.38;32.98;102253.84;5055146;28;20035;-50
2022/05/08 07:20:37;;;;;;;2.65;0.88;;;;;;;26.44;33.07;102258.34;5053346;28;20052;-43
2022/05/08 07:23:06;;;;;;;1.50;0.68;;;;;;;26.35;33.22;102241.50;5054498;28;20065;-44
2022/05/08 07:25:34;;;;;;;1.00;0.57;;;;;;;26.50;33.15;102254.09;5053726;28;20104;-49
2022/05/08 07:28:03;;;;;;;1.55;0.70;;;;;;;26.52;33.18;102255.03;5054376;28;20025;-45
2022/05/08 07:30:32;;;;;;;3.15;0.90;;;;;;;26.57;33.16;102256.88;5055245;28;20017;-47
2022/05/08 07:33:01;;;;;;;1.65;0.60;;;;;;;26.64;33.11;102261.44;5054753;28;20033;-45
2022/05/08 07:38:21;;;;;;;3.95;0.75;;;;;;;26.74;32.92;102267.78;5051152;28;20119;-43
2022/05/08 07:40:50;;;;;;;1.80;0.75;;;;;;;26.75;32.94;102266.91;5054671;28;20484;-44
2022/05/08 07:43:19;;;;;;;2.88;0.90;;;;;;;26.78;33.31;102275.78;5054637;28;20021;-44
2022/05/08 07:45:47;;;;;;;0.95;0.70;;;;;;;26.80;33.10;102266.22;5053391;28;20021;-43
2022/05/08 07:48:16;;;;;;;2.00;0.80;;;;;;;26.87;32.99;102274.22;5052945;28;20021;-42
2022/05/08 07:50:45;;;;;;;3.78;0.82;;;;;;;26.90;32.88;102266.41;5054592;28;20467;-43
2022/05/08 07:53:15;;;;;;;2.75;0.52;;;;;;;26.99;32.77;102272.75;5054655;28;20075;-45
2022/05/08 07:55:43;;;;;;;1.77;0.80;;;;;;;27.01;32.83;102272.78;5054517;28;20021;-42
2022/05/08 07:58:12;;;;;;;3.40;0.70;;;;;;;27.03;32.78;102272.81;5054402;28;20028;-44
2022/05/08 08:00:39;;;;;;;1.15;0.60;;;;;;;27.08;32.89;102271.16;5053858;28;20434;-53
2022/05/08 08:03:08;;;;;;;2.00;0.70;;;;;;;27.07;33.11;102267.66;5052973;28;20489;-50
2022/05/08 08:05:36;;;;;;;2.17;0.65;;;;;;;27.17;32.66;102267.81;5052833;28;20017;-45
2022/05/08 08:08:05;;;;;;;5.32;1.45;;;;;;;27.15;33.05;102260.78;5053937;28;20060;-48
2022/05/08 08:10:33;;;;;;;2.35;0.77;;;;;;;27.21;32.87;102267.03;5054059;28;20382;-45
2022/05/08 08:13:01;;;;;;;1.35;0.60;;;;;;;27.26;32.94;102266.25;5054126;28;20468;-49
2022/05/08 08:15:29;;;;;;;1.75;0.60;;;;;;;27.15;32.89;102242.34;5054111;28;20025;-44
2022/05/08 08:17:58;;;;;;;1.35;0.63;;;;;;;27.29;32.91;102268.09;5053247;28;20461;-48
2022/05/08 08:20:27;;;;;;;1.98;0.60;;;;;;;27.33;33.08;102269.03;5053170;28;20028;-43
2022/05/08 08:22:55;;;;;;;0.77;0.60;;;;;;;27.39;32.90;102275.28;5053917;28;20029;-46
2022/05/08 08:25:24;;;;;;;2.50;0.73;;;;;;;27.42;32.84;102270.09;5052713;28;20588;-44
2022/05/08 08:27:52;;;;;;;3.38;0.98;;;;;;;27.42;32.70;102251.66;5052440;28;20098;-44
2022/05/08 08:30:20;;;;;;;1.42;0.82;;;;;;;27.47;32.85;102253.53;5052224;28;20035;-45
2022/05/08 08:32:49;;;;;;;1.40;0.98;;;;;;;27.49;32.55;102265.84;5053675;28;20029;-43
2022/05/08 08:35:17;;;;;;;2.20;0.80;;;;;;;27.37;32.46;102237.47;5053569;28;20032;-49
2022/05/08 08:37:46;;;;;;;3.60;1.00;;;;;;;27.56;32.44;102267.72;5053567;28;20116;-42
2022/05/08 08:40:15;;;;;;;1.77;0.90;;;;;;;27.52;32.26;102265.91;5052310;28;20394;-42
2022/05/08 08:42:45;;;;;;;2.42;1.20;;;;;;;27.61;32.34;102262.56;5052316;28;20327;-42
2022/05/08 08:48:05;;;;;;;1.45;0.60;;;;;;;27.64;32.14;102256.44;5046185;28;20033;-49
2022/05/08 08:50:35;;;;;;;6.57;1.20;;;;;;;27.69;32.20;102258.28;5053927;28;20024;-43
2022/05/08 08:53:06;;;;;;;3.38;0.88;;;;;;;27.66;32.01;102260.00;5053413;28;20036;-42
2022/05/08 08:55:35;;;;;;;3.50;1.48;;;;;;;27.68;31.68;102259.16;5053199;28;20067;-42
2022/05/08 08:58:03;;;;;;;2.40;1.10;;;;;;;27.60;32.04;102251.13;5053251;28;20036;-50
2022/05/08 09:00:32;;;;;;;1.15;0.93;;;;;;;27.63;32.08;102249.41;5052251;28;20116;-46
2022/05/08 09:03:00;;;;;;;2.40;0.90;;;;;;;27.65;31.99;102245.91;5052997;28;20024;-42
2022/05/08 09:05:28;;;;;;;4.85;1.20;;;;;;;27.68;31.97;102251.25;5068806;28;20029;-47
2022/05/08 09:07:58;;;;;;;2.63;1.10;;;;;;;27.74;31.91;102255.72;5051832;28;20021;-42
2022/05/08 09:10:35;;;;;;;2.03;1.35;;;;;;;27.69;31.90;102250.38;5053025;28;20033;-43
2022/05/08 09:13:05;;;;;;;1.98;0.98;;;;;;;27.77;32.04;102247.00;5053206;28;20040;-43
2022/05/08 09:15:35;;;;;;;1.67;1.00;;;;;;;27.72;32.05;102257.44;5053179;28;20061;-42
2022/05/08 09:18:07;;;;;;;5.82;1.33;;;;;;;27.73;31.91;102246.94;5052901;28;20063;-47
2022/05/08 09:20:43;;;;;;;2.03;1.00;;;;;;;27.73;31.85;102240.78;5052639;28;20040;-42
2022/05/08 09:23:15;;;;;;;1.45;0.90;;;;;;;27.85;31.68;102263.84;5053087;28;20040;-42
2022/05/08 09:26:02;;;;;;;2.17;1.17;;;;;;;27.81;31.28;102264.63;5053118;28;20027;-47
2022/05/08 09:28:34;;;;;;;1.40;1.10;;;;;;;27.79;31.47;102251.44;5052741;28;20068;-41
2022/05/08 09:31:05;;;;;;;3.75;1.42;;;;;;;27.79;31.23;102253.19;5040248;28;20394;-43
2022/05/08 09:33:37;;;;;;;1.88;1.27;;;;;;;27.83;31.61;102265.56;5056172;28;20052;-42
2022/05/08 09:36:11;;;;;;;4.40;1.55;;;;;;;27.84;31.36;102251.50;5055758;28;20029;-42
2022/05/08 09:38:59;;;;;;;5.03;1.50;;;;;;;27.85;30.99;102255.91;5055513;28;20445;-44
2022/05/08 09:41:28;;;;;;;2.55;1.25;;;;;;;27.89;31.10;102252.47;5039257;28;20116;-48
2022/05/08 09:44:16;;;;;;;2.65;1.10;;;;;;;27.79;31.07;102245.28;5056892;28;20021;-43
2022/05/08 09:46:46;;;;;;;1.95;0.90;;;;;;;27.82;31.23;102250.59;5038229;28;20057;-46
2022/05/08 09:49:19;;;;;;;2.58;1.02;;;;;;;27.80;31.08;102253.22;5055548;28;20084;-42
2022/05/08 09:51:48;;;;;;;1.48;1.20;;;;;;;27.83;30.85;102245.34;5055377;28;20036;-44
2022/05/08 09:54:18;;;;;;;1.58;1.10;;;;;;;27.81;31.00;102252.34;5071752;28;20382;-43
2022/05/08 09:56:49;;;;;;;1.50;0.85;;;;;;;27.84;31.17;102259.41;5056174;28;20032;-48
2022/05/08 09:59:19;;;;;;;3.33;1.20;;;;;;;27.86;30.89;102249.78;5056631;28;20029;-42
2022/05/08 10:01:47;;;;;;;2.10;1.30;;;;;;;27.78;30.93;102238.25;5056372;28;20032;-47
2022/05/08 10:04:16;;;;;;;1.52;0.88;;;;;;;27.86;30.97;102241.88;5056324;28;20021;-48
2022/05/08 10:06:44;;;;;;;3.67;1.27;;;;;;;27.88;31.01;102237.53;5055255;28;20078;-50
2022/05/08 10:14:49;;;;;;;2.17;1.10;;;;;;;27.86;30.49;102236.59;5049771;28;20069;-47
2022/05/08 10:17:29;;;;;;;2.10;0.93;;;;;;;27.82;30.70;102237.41;5055872;28;20033;-42
2022/05/08 10:19:58;;;;;;;4.93;1.45;;;;;;;27.84;30.39;102235.69;5055023;28;20032;-43
2022/05/08 10:22:27;;;;;;;3.28;1.33;;;;;;;27.84;30.01;102239.22;5054816;28;20478;-46
2022/05/08 10:24:57;;;;;;;4.00;2.00;;;;;;;27.78;29.99;102231.19;5054924;28;20036;-48
2022/05/08 10:27:28;;;;;;;2.47;1.25;;;;;;;27.81;29.79;102236.53;5054583;28;20028;-42
2022/05/08 10:29:57;;;;;;;3.28;1.25;;;;;;;27.81;29.88;102233.00;5056030;28;20417;-42
2022/05/08 10:32:34;;;;;;;4.53;1.33;;;;;;;27.83;29.96;102231.28;5055989;28;20021;-49
2022/05/08 10:35:09;;;;;;;5.70;1.55;;;;;;;27.80;29.75;102234.75;5055769;28;20094;-43
2022/05/08 10:37:38;;;;;;;3.10;1.55;;;;;;;27.83;29.59;102233.91;5055709;28;20029;-43
2022/05/08 10:40:26;;;;;;;1.98;1.00;;;;;;;27.79;29.99;102235.63;5053831;28;20032;-47
2022/05/08 10:42:56;;;;;;;4.28;1.30;;;;;;;27.78;29.85;102236.47;5055874;28;20021;-42
2022/05/08 10:45:40;;;;;;;4.25;1.15;;;;;;;27.74;30.16;102243.47;5055765;28;20024;-43
2022/05/08 10:48:11;;;;;;;3.38;1.10;;;;;;;27.70;30.25;102224.94;5055182;28;20040;-43
2022/05/08 10:50:41;;;;;;;3.03;1.15;;;;;;;27.82;30.41;102237.41;5055824;28;20486;-43
2022/05/08 10:53:22;;;;;;;2.33;1.10;;;;;;;27.83;29.79;102241.81;5055109;28;20032;-43
2022/05/08 10:55:50;;;;;;;2.58;0.98;;;;;;;27.82;29.84;102235.66;5054241;28;20127;-42
2022/05/08 10:58:19;;;;;;;4.93;1.05;;;;;;;27.83;29.88;102234.81;5055480;28;20025;-49
2022/05/08 11:00:48;;;;;;;3.58;1.30;;;;;;;27.82;29.63;102233.03;5055904;28;20124;-49
2022/05/08 11:03:22;;;;;;;2.15;1.10;;;;;;;27.82;29.37;102230.41;5055207;28;20036;-47
2022/05/08 11:05:50;;;;;;;3.07;0.83;;;;;;;27.83;29.79;102220.72;5054085;28;20033;-44
2022/05/08 11:08:25;;;;;;;2.58;1.10;;;;;;;27.78;29.96;102206.59;5055033;28;20378;-42
2022/05/08 11:11:13;;;;;;;3.15;1.05;;;;;;;27.86;30.04;102228.69;5055503;28;20041;-43
2022/05/08 11:13:44;;;;;;;5.35;1.30;;;;;;;27.86;30.17;102226.97;5055448;28;20051;-42
2022/05/08 11:16:15;;;;;;;2.65;1.02;;;;;;;27.85;30.21;102232.19;5055278;28;20028;-43
2022/05/08 11:18:44;;;;;;;3.47;0.80;;;;;;;27.81;29.70;102225.09;5055134;28;20033;-49
2022/05/08 11:21:13;;;;;;;5.47;1.38;;;;;;;27.83;29.45;102226.00;5037169;28;20111;-42
2022/05/08 11:23:44;;;;;;;2.15;1.20;;;;;;;27.82;29.59;102226.84;5037486;28;20364;-46
2022/05/08 11:26:15;;;;;;;2.58;1.20;;;;;;;27.80;29.80;102221.56;5053679;28;20033;-48
2022/05/08 11:28:55;;;;;;;2.95;1.58;;;;;;;27.81;29.65;102215.44;5055057;28;20390;-43
2022/05/08 11:31:25;;;;;;;7.55;1.48;;;;;;;27.82;29.51;102206.66;5053836;28;20051;-48
2022/05/08 11:36:41;;;;;;;2.92;1.10;;;;;;;27.80;30.14;102218.06;5047750;28;20037;-47
2022/05/08 11:39:20;;;;;;;2.00;1.00;;;;;;;27.82;30.97;102221.59;5054745;28;20045;-42
2022/05/08 11:41:50;;;;;;;2.33;1.23;;;;;;;27.73;30.73;102209.13;5054721;28;20025;-44
2022/05/08 11:44:21;;;;;;;2.83;1.05;;;;;;;27.86;30.12;102211.13;5053309;28;20106;-46
2022/05/08 11:46:56;;;;;;;1.30;0.75;;;;;;;27.82;30.06;102214.59;5053003;28;20033;-44
2022/05/08 11:49:23;;;;;;;;;;;;;;;27.93;29.97;102208.56;5055161;28;20501;-48
2022/05/08 11:51:54;;;;;;;1.95;0.93;;;;;;;27.76;30.42;102193.38;5068063;28;20003;-43
2022/05/08 11:54:27;;;;;;;2.70;1.02;;;;;;;27.62;31.15;102206.34;5054367;28;20032;-46
2022/05/08 11:57:21;;;;;;;2.13;1.25;;;;;;;27.60;31.41;102208.94;5054205;28;20026;-42